sensor_id;sensor_type;location;lat;lon;timestamp;P1;durP1;ratioP1;P2;durP2;ratioP2
76171;SDS011;64929;51.178;4.138;2023-12-07T00:02:13;41.40;;;11.03;;
76171;SDS011;64929;51.178;4.138;2023-12-07T00:07:09;65.83;;;11.77;;
76171;SDS011;64929;51.178;4.138;2023-12-07T00:09:34;68.77;;;10.80;;
76171;SDS011;64929;51.178;4.138;2023-12-07T00:12:00;49.13;;;11.57;;
76171;SDS011;64929;51.178;4.138;2023-12-07T00:14:26;54.67;;;10.73;;
76171;SDS011;64929;51.178;4.138;2023-12-07T00:16:51;68.03;;;12.23;;
76171;SDS011;64929;51.178;4.138;2023-12-07T00:19:17;70.23;;;11.80;;
76171;SDS011;64929;51.178;4.138;2023-12-07T00:21:43;49.80;;;11.83;;
76171;SDS011;64929;51.178;4.138;2023-12-07T00:24:09;99.17;;;13.50;;
76171;SDS011;64929;51.178;4.138;2023-12-07T00:26:35;75.90;;;10.93;;
76171;SDS011;64929;51.178;4.138;2023-12-07T00:29:01;87.97;;;9.93;;
76171;SDS011;64929;51.178;4.138;2023-12-07T00:31:26;55.70;;;12.60;;
76171;SDS011;64929;51.178;4.138;2023-12-07T00:33:52;86.87;;;12.50;;
76171;SDS011;64929;51.178;4.138;2023-12-07T00:36:17;82.40;;;13.23;;
76171;SDS011;64929;51.178;4.138;2023-12-07T00:38:43;50.37;;;11.77;;
76171;SDS011;64929;51.178;4.138;2023-12-07T00:41:09;107.33;;;13.00;;
76171;SDS011;64929;51.178;4.138;2023-12-07T00:43:36;78.30;;;12.93;;
76171;SDS011;64929;51.178;4.138;2023-12-07T00:46:03;48.90;;;12.10;;
76171;SDS011;64929;51.178;4.138;2023-12-07T00:48:33;63.85;;;13.18;;
76171;SDS011;64929;51.178;4.138;2023-12-07T00:50:58;62.33;;;13.33;;
76171;SDS011;64929;51.178;4.138;2023-12-07T00:53:24;71.43;;;11.63;;
76171;SDS011;64929;51.178;4.138;2023-12-07T00:55:50;57.67;;;12.73;;
76171;SDS011;64929;51.178;4.138;2023-12-07T00:58:15;59.63;;;11.67;;
76171;SDS011;64929;51.178;4.138;2023-12-07T01:00:41;66.97;;;12.53;;
76171;SDS011;64929;51.178;4.138;2023-12-07T01:03:07;57.43;;;11.73;;
76171;SDS011;64929;51.178;4.138;2023-12-07T01:05:32;70.47;;;13.03;;
76171;SDS011;64929;51.178;4.138;2023-12-07T01:07:58;69.73;;;12.63;;
76171;SDS011;64929;51.178;4.138;2023-12-07T01:10:24;86.93;;;14.13;;
76171;SDS011;64929;51.178;4.138;2023-12-07T01:12:49;74.47;;;13.83;;
76171;SDS011;64929;51.178;4.138;2023-12-07T01:15:15;64.57;;;12.87;;
76171;SDS011;64929;51.178;4.138;2023-12-07T01:17:41;49.93;;;13.17;;
76171;SDS011;64929;51.178;4.138;2023-12-07T01:20:07;69.10;;;13.73;;
76171;SDS011;64929;51.178;4.138;2023-12-07T01:25:10;50.00;;;12.77;;
76171;SDS011;64929;51.178;4.138;2023-12-07T01:27:41;72.33;;;13.60;;
76171;SDS011;64929;51.178;4.138;2023-12-07T01:30:09;73.20;;;14.83;;
76171;SDS011;64929;51.178;4.138;2023-12-07T01:32:35;74.77;;;14.30;;
76171;SDS011;64929;51.178;4.138;2023-12-07T01:35:00;79.03;;;15.17;;
76171;SDS011;64929;51.178;4.138;2023-12-07T01:37:27;54.67;;;15.37;;
76171;SDS011;64929;51.178;4.138;2023-12-07T01:39:54;69.00;;;15.90;;
76171;SDS011;64929;51.178;4.138;2023-12-07T01:42:20;66.77;;;15.70;;
76171;SDS011;64929;51.178;4.138;2023-12-07T01:44:45;63.93;;;15.60;;
76171;SDS011;64929;51.178;4.138;2023-12-07T01:47:11;61.60;;;17.23;;
76171;SDS011;64929;51.178;4.138;2023-12-07T01:49:37;55.50;;;15.37;;
76171;SDS011;64929;51.178;4.138;2023-12-07T01:52:04;60.83;;;17.03;;
76171;SDS011;64929;51.178;4.138;2023-12-07T01:54:31;62.07;;;16.27;;
76171;SDS011;64929;51.178;4.138;2023-12-07T01:56:57;63.00;;;17.37;;
76171;SDS011;64929;51.178;4.138;2023-12-07T01:59:23;61.27;;;16.67;;
76171;SDS011;64929;51.178;4.138;2023-12-07T02:01:51;54.57;;;15.97;;
76171;SDS011;64929;51.178;4.138;2023-12-07T02:04:21;51.67;;;15.33;;
76171;SDS011;64929;51.178;4.138;2023-12-07T02:06:49;58.87;;;17.00;;
76171;SDS011;64929;51.178;4.138;2023-12-07T02:09:18;64.53;;;17.67;;
76171;SDS011;64929;51.178;4.138;2023-12-07T02:11:45;57.10;;;16.27;;
76171;SDS011;64929;51.178;4.138;2023-12-07T02:14:12;75.47;;;17.17;;
76171;SDS011;64929;51.178;4.138;2023-12-07T02:16:42;62.07;;;18.10;;
76171;SDS011;64929;51.178;4.138;2023-12-07T02:22:25;68.83;;;18.33;;
76171;SDS011;64929;51.178;4.138;2023-12-07T02:25:06;81.07;;;19.40;;
76171;SDS011;64929;51.178;4.138;2023-12-07T02:27:34;78.60;;;19.70;;
76171;SDS011;64929;51.178;4.138;2023-12-07T02:30:01;80.90;;;20.98;;
76171;SDS011;64929;51.178;4.138;2023-12-07T02:32:27;77.32;;;20.55;;
76171;SDS011;64929;51.178;4.138;2023-12-07T02:34:53;68.10;;;19.17;;
76171;SDS011;64929;51.178;4.138;2023-12-07T02:37:19;80.93;;;19.43;;
76171;SDS011;64929;51.178;4.138;2023-12-07T02:42:19;68.00;;;19.17;;
76171;SDS011;64929;51.178;4.138;2023-12-07T02:44:49;80.30;;;20.87;;
76171;SDS011;64929;51.178;4.138;2023-12-07T02:47:16;81.13;;;21.37;;
76171;SDS011;64929;51.178;4.138;2023-12-07T02:49:42;80.90;;;20.87;;
76171;SDS011;64929;51.178;4.138;2023-12-07T02:52:08;89.23;;;21.97;;
76171;SDS011;64929;51.178;4.138;2023-12-07T02:54:34;80.60;;;21.43;;
76171;SDS011;64929;51.178;4.138;2023-12-07T02:56:59;75.57;;;18.03;;
76171;SDS011;64929;51.178;4.138;2023-12-07T02:59:25;72.20;;;20.33;;
76171;SDS011;64929;51.178;4.138;2023-12-07T03:01:50;63.10;;;17.83;;
76171;SDS011;64929;51.178;4.138;2023-12-07T03:04:16;56.77;;;18.17;;
76171;SDS011;64929;51.178;4.138;2023-12-07T03:06:42;58.83;;;19.00;;
76171;SDS011;64929;51.178;4.138;2023-12-07T03:09:07;56.67;;;16.03;;
76171;SDS011;64929;51.178;4.138;2023-12-07T03:11:33;45.78;;;15.93;;
76171;SDS011;64929;51.178;4.138;2023-12-07T03:13:59;41.47;;;15.47;;
76171;SDS011;64929;51.178;4.138;2023-12-07T03:16:25;44.17;;;16.10;;
76171;SDS011;64929;51.178;4.138;2023-12-07T03:18:50;44.27;;;15.20;;
76171;SDS011;64929;51.178;4.138;2023-12-07T03:21:16;41.83;;;14.70;;
76171;SDS011;64929;51.178;4.138;2023-12-07T03:23:42;40.47;;;14.65;;
76171;SDS011;64929;51.178;4.138;2023-12-07T03:26:07;35.70;;;14.50;;
76171;SDS011;64929;51.178;4.138;2023-12-07T03:28:33;33.10;;;13.60;;
76171;SDS011;64929;51.178;4.138;2023-12-07T03:30:58;31.60;;;13.35;;
76171;SDS011;64929;51.178;4.138;2023-12-07T03:33:24;39.35;;;14.10;;
76171;SDS011;64929;51.178;4.138;2023-12-07T03:35:50;31.63;;;12.93;;
76171;SDS011;64929;51.178;4.138;2023-12-07T03:38:16;36.27;;;13.67;;
76171;SDS011;64929;51.178;4.138;2023-12-07T03:40:41;38.47;;;14.23;;
76171;SDS011;64929;51.178;4.138;2023-12-07T03:43:07;37.27;;;13.77;;
76171;SDS011;64929;51.178;4.138;2023-12-07T03:45:33;38.30;;;13.93;;
76171;SDS011;64929;51.178;4.138;2023-12-07T03:47:58;33.27;;;11.97;;
76171;SDS011;64929;51.178;4.138;2023-12-07T03:50:24;32.17;;;12.87;;
76171;SDS011;64929;51.178;4.138;2023-12-07T03:52:50;36.37;;;14.03;;
76171;SDS011;64929;51.178;4.138;2023-12-07T03:55:16;31.27;;;12.53;;
76171;SDS011;64929;51.178;4.138;2023-12-07T03:57:42;36.30;;;12.97;;
76171;SDS011;64929;51.178;4.138;2023-12-07T04:00:10;34.30;;;12.50;;
76171;SDS011;64929;51.178;4.138;2023-12-07T04:02:36;36.63;;;12.52;;
76171;SDS011;64929;51.178;4.138;2023-12-07T04:05:02;39.03;;;14.13;;
76171;SDS011;64929;51.178;4.138;2023-12-07T04:07:28;36.53;;;13.43;;
76171;SDS011;64929;51.178;4.138;2023-12-07T04:09:56;28.57;;;11.97;;
76171;SDS011;64929;51.178;4.138;2023-12-07T04:12:22;27.37;;;10.80;;
76171;SDS011;64929;51.178;4.138;2023-12-07T04:14:49;32.87;;;12.37;;
76171;SDS011;64929;51.178;4.138;2023-12-07T04:17:15;30.63;;;11.77;;
76171;SDS011;64929;51.178;4.138;2023-12-07T04:19:41;32.45;;;12.13;;
76171;SDS011;64929;51.178;4.138;2023-12-07T04:22:06;30.07;;;11.33;;
76171;SDS011;64929;51.178;4.138;2023-12-07T04:24:32;34.60;;;12.63;;
76171;SDS011;64929;51.178;4.138;2023-12-07T04:26:58;27.90;;;11.63;;
76171;SDS011;64929;51.178;4.138;2023-12-07T04:29:23;30.33;;;12.20;;
76171;SDS011;64929;51.178;4.138;2023-12-07T04:31:49;28.73;;;11.40;;
76171;SDS011;64929;51.178;4.138;2023-12-07T04:34:15;29.45;;;11.60;;
76171;SDS011;64929;51.178;4.138;2023-12-07T04:36:40;29.77;;;11.07;;
76171;SDS011;64929;51.178;4.138;2023-12-07T04:39:06;33.73;;;12.50;;
76171;SDS011;64929;51.178;4.138;2023-12-07T04:41:33;25.03;;;11.63;;
76171;SDS011;64929;51.178;4.138;2023-12-07T04:43:59;33.37;;;11.77;;
76171;SDS011;64929;51.178;4.138;2023-12-07T04:46:24;30.60;;;11.53;;
76171;SDS011;64929;51.178;4.138;2023-12-07T04:48:50;32.13;;;12.13;;
76171;SDS011;64929;51.178;4.138;2023-12-07T04:51:16;33.90;;;11.60;;
76171;SDS011;64929;51.178;4.138;2023-12-07T04:53:41;29.30;;;11.13;;
76171;SDS011;64929;51.178;4.138;2023-12-07T04:56:07;28.13;;;11.43;;
76171;SDS011;64929;51.178;4.138;2023-12-07T04:58:33;31.40;;;11.83;;
76171;SDS011;64929;51.178;4.138;2023-12-07T05:00:59;39.90;;;12.50;;
76171;SDS011;64929;51.178;4.138;2023-12-07T05:03:24;31.42;;;12.18;;
76171;SDS011;64929;51.178;4.138;2023-12-07T05:05:50;26.40;;;10.73;;
76171;SDS011;64929;51.178;4.138;2023-12-07T05:08:16;33.17;;;12.80;;
76171;SDS011;64929;51.178;4.138;2023-12-07T05:10:43;29.38;;;11.55;;
76171;SDS011;64929;51.178;4.138;2023-12-07T05:13:08;25.40;;;10.35;;
76171;SDS011;64929;51.178;4.138;2023-12-07T05:15:34;30.73;;;11.50;;
76171;SDS011;64929;51.178;4.138;2023-12-07T05:18:00;31.23;;;11.27;;
76171;SDS011;64929;51.178;4.138;2023-12-07T05:20:25;26.83;;;11.43;;
76171;SDS011;64929;51.178;4.138;2023-12-07T05:22:53;33.43;;;12.27;;
76171;SDS011;64929;51.178;4.138;2023-12-07T05:25:18;26.57;;;10.80;;
76171;SDS011;64929;51.178;4.138;2023-12-07T05:27:44;23.27;;;11.57;;
76171;SDS011;64929;51.178;4.138;2023-12-07T05:30:10;28.40;;;11.03;;
76171;SDS011;64929;51.178;4.138;2023-12-07T05:32:36;34.43;;;11.27;;
76171;SDS011;64929;51.178;4.138;2023-12-07T05:35:02;26.07;;;10.37;;
76171;SDS011;64929;51.178;4.138;2023-12-07T05:37:28;25.63;;;11.03;;
76171;SDS011;64929;51.178;4.138;2023-12-07T05:39:54;24.43;;;10.83;;
76171;SDS011;64929;51.178;4.138;2023-12-07T05:42:20;27.13;;;12.20;;
76171;SDS011;64929;51.178;4.138;2023-12-07T05:44:45;34.97;;;11.53;;
76171;SDS011;64929;51.178;4.138;2023-12-07T05:47:11;30.23;;;11.50;;
76171;SDS011;64929;51.178;4.138;2023-12-07T05:49:37;25.73;;;10.70;;
76171;SDS011;64929;51.178;4.138;2023-12-07T05:52:02;21.83;;;10.77;;
76171;SDS011;64929;51.178;4.138;2023-12-07T05:54:28;26.50;;;11.37;;
76171;SDS011;64929;51.178;4.138;2023-12-07T05:56:54;29.47;;;11.07;;
76171;SDS011;64929;51.178;4.138;2023-12-07T05:59:20;27.97;;;12.70;;
76171;SDS011;64929;51.178;4.138;2023-12-07T06:01:45;29.23;;;11.80;;
76171;SDS011;64929;51.178;4.138;2023-12-07T06:04:11;25.93;;;11.80;;
76171;SDS011;64929;51.178;4.138;2023-12-07T06:06:37;27.10;;;12.13;;
76171;SDS011;64929;51.178;4.138;2023-12-07T06:09:03;28.57;;;12.13;;
76171;SDS011;64929;51.178;4.138;2023-12-07T06:11:33;25.77;;;12.20;;
76171;SDS011;64929;51.178;4.138;2023-12-07T06:13:59;25.93;;;11.73;;
76171;SDS011;64929;51.178;4.138;2023-12-07T06:16:25;27.03;;;12.43;;
76171;SDS011;64929;51.178;4.138;2023-12-07T06:18:51;27.70;;;12.43;;
76171;SDS011;64929;51.178;4.138;2023-12-07T06:21:17;26.43;;;12.53;;
76171;SDS011;64929;51.178;4.138;2023-12-07T06:23:43;25.30;;;11.37;;
76171;SDS011;64929;51.178;4.138;2023-12-07T06:26:11;23.30;;;11.70;;
76171;SDS011;64929;51.178;4.138;2023-12-07T06:28:37;21.57;;;11.70;;
76171;SDS011;64929;51.178;4.138;2023-12-07T06:31:06;23.20;;;11.00;;
76171;SDS011;64929;51.178;4.138;2023-12-07T06:33:32;24.87;;;11.43;;
76171;SDS011;64929;51.178;4.138;2023-12-07T06:35:59;23.67;;;11.80;;
76171;SDS011;64929;51.178;4.138;2023-12-07T06:38:25;22.67;;;10.70;;
76171;SDS011;64929;51.178;4.138;2023-12-07T06:40:51;24.17;;;11.93;;
76171;SDS011;64929;51.178;4.138;2023-12-07T06:43:17;24.40;;;11.80;;
76171;SDS011;64929;51.178;4.138;2023-12-07T06:45:42;26.80;;;11.83;;
76171;SDS011;64929;51.178;4.138;2023-12-07T06:48:08;26.00;;;13.32;;
76171;SDS011;64929;51.178;4.138;2023-12-07T06:50:34;23.75;;;12.68;;
76171;SDS011;64929;51.178;4.138;2023-12-07T06:52:59;23.67;;;12.67;;
76171;SDS011;64929;51.178;4.138;2023-12-07T06:55:25;25.83;;;12.30;;
76171;SDS011;64929;51.178;4.138;2023-12-07T06:57:51;25.30;;;12.80;;
76171;SDS011;64929;51.178;4.138;2023-12-07T07:00:16;25.05;;;12.35;;
76171;SDS011;64929;51.178;4.138;2023-12-07T07:02:43;24.27;;;11.35;;
76171;SDS011;64929;51.178;4.138;2023-12-07T07:05:09;24.00;;;12.35;;
76171;SDS011;64929;51.178;4.138;2023-12-07T07:07:36;23.70;;;11.57;;
76171;SDS011;64929;51.178;4.138;2023-12-07T07:10:02;26.55;;;12.75;;
76171;SDS011;64929;51.178;4.138;2023-12-07T07:12:28;29.30;;;12.20;;
76171;SDS011;64929;51.178;4.138;2023-12-07T07:14:54;22.27;;;10.88;;
76171;SDS011;64929;51.178;4.138;2023-12-07T07:17:20;32.60;;;12.90;;
76171;SDS011;64929;51.178;4.138;2023-12-07T07:19:46;26.67;;;10.77;;
76171;SDS011;64929;51.178;4.138;2023-12-07T07:22:12;26.90;;;11.30;;
76171;SDS011;64929;51.178;4.138;2023-12-07T07:24:37;21.58;;;11.82;;
76171;SDS011;64929;51.178;4.138;2023-12-07T07:27:03;24.42;;;10.48;;
76171;SDS011;64929;51.178;4.138;2023-12-07T07:29:30;25.77;;;11.23;;
76171;SDS011;64929;51.178;4.138;2023-12-07T07:31:57;23.70;;;11.23;;
76171;SDS011;64929;51.178;4.138;2023-12-07T07:34:23;20.97;;;11.07;;
76171;SDS011;64929;51.178;4.138;2023-12-07T07:36:50;26.30;;;11.07;;
76171;SDS011;64929;51.178;4.138;2023-12-07T07:39:15;27.27;;;11.00;;
76171;SDS011;64929;51.178;4.138;2023-12-07T07:41:41;17.75;;;10.02;;
76171;SDS011;64929;51.178;4.138;2023-12-07T07:44:07;21.07;;;10.60;;
76171;SDS011;64929;51.178;4.138;2023-12-07T07:46:32;20.58;;;10.40;;
76171;SDS011;64929;51.178;4.138;2023-12-07T07:48:58;23.15;;;10.57;;
76171;SDS011;64929;51.178;4.138;2023-12-07T07:51:24;24.80;;;9.65;;
76171;SDS011;64929;51.178;4.138;2023-12-07T07:53:49;22.13;;;10.30;;
76171;SDS011;64929;51.178;4.138;2023-12-07T07:56:15;20.15;;;10.02;;
76171;SDS011;64929;51.178;4.138;2023-12-07T07:58:41;25.02;;;11.02;;
76171;SDS011;64929;51.178;4.138;2023-12-07T08:01:06;24.38;;;11.07;;
76171;SDS011;64929;51.178;4.138;2023-12-07T08:03:32;20.27;;;10.05;;
76171;SDS011;64929;51.178;4.138;2023-12-07T08:05:58;24.25;;;10.65;;
76171;SDS011;64929;51.178;4.138;2023-12-07T08:08:23;22.33;;;10.52;;
76171;SDS011;64929;51.178;4.138;2023-12-07T08:10:51;19.10;;;9.85;;
76171;SDS011;64929;51.178;4.138;2023-12-07T08:13:17;22.77;;;10.32;;
76171;SDS011;64929;51.178;4.138;2023-12-07T08:15:43;20.17;;;10.30;;
76171;SDS011;64929;51.178;4.138;2023-12-07T08:18:08;21.95;;;10.07;;
76171;SDS011;64929;51.178;4.138;2023-12-07T08:20:34;16.77;;;9.48;;
76171;SDS011;64929;51.178;4.138;2023-12-07T08:23:00;20.50;;;9.27;;
76171;SDS011;64929;51.178;4.138;2023-12-07T08:25:25;20.35;;;10.07;;
76171;SDS011;64929;51.178;4.138;2023-12-07T08:27:51;16.98;;;9.75;;
76171;SDS011;64929;51.178;4.138;2023-12-07T08:30:17;21.08;;;10.38;;
76171;SDS011;64929;51.178;4.138;2023-12-07T08:32:43;19.63;;;10.15;;
76171;SDS011;64929;51.178;4.138;2023-12-07T08:35:09;17.73;;;9.48;;
76171;SDS011;64929;51.178;4.138;2023-12-07T08:37:37;22.17;;;9.25;;
76171;SDS011;64929;51.178;4.138;2023-12-07T08:40:03;19.35;;;9.70;;
76171;SDS011;64929;51.178;4.138;2023-12-07T08:42:30;17.65;;;8.90;;
76171;SDS011;64929;51.178;4.138;2023-12-07T08:44:56;19.98;;;8.85;;
76171;SDS011;64929;51.178;4.138;2023-12-07T08:47:22;20.17;;;9.23;;
76171;SDS011;64929;51.178;4.138;2023-12-07T08:49:48;16.60;;;9.07;;
76171;SDS011;64929;51.178;4.138;2023-12-07T08:52:16;18.85;;;8.60;;
76171;SDS011;64929;51.178;4.138;2023-12-07T08:54:43;20.20;;;8.82;;
76171;SDS011;64929;51.178;4.138;2023-12-07T08:57:09;22.70;;;10.63;;
76171;SDS011;64929;51.178;4.138;2023-12-07T08:59:35;20.90;;;9.23;;
76171;SDS011;64929;51.178;4.138;2023-12-07T09:02:00;23.10;;;9.23;;
76171;SDS011;64929;51.178;4.138;2023-12-07T09:04:26;17.33;;;9.40;;
76171;SDS011;64929;51.178;4.138;2023-12-07T09:06:52;19.55;;;10.07;;
76171;SDS011;64929;51.178;4.138;2023-12-07T09:09:19;17.38;;;8.95;;
76171;SDS011;64929;51.178;4.138;2023-12-07T09:11:45;16.42;;;8.63;;
76171;SDS011;64929;51.178;4.138;2023-12-07T09:14:11;19.42;;;9.75;;
76171;SDS011;64929;51.178;4.138;2023-12-07T09:16:45;18.05;;;9.40;;
76171;SDS011;64929;51.178;4.138;2023-12-07T09:19:12;16.65;;;9.18;;
76171;SDS011;64929;51.178;4.138;2023-12-07T09:21:39;16.10;;;9.13;;
76171;SDS011;64929;51.178;4.138;2023-12-07T09:24:05;21.17;;;9.63;;
76171;SDS011;64929;51.178;4.138;2023-12-07T09:26:31;16.10;;;8.70;;
76171;SDS011;64929;51.178;4.138;2023-12-07T09:28:57;20.38;;;9.98;;
76171;SDS011;64929;51.178;4.138;2023-12-07T09:31:23;20.48;;;9.50;;
76171;SDS011;64929;51.178;4.138;2023-12-07T09:33:49;17.75;;;8.95;;
76171;SDS011;64929;51.178;4.138;2023-12-07T09:36:18;16.58;;;9.00;;
76171;SDS011;64929;51.178;4.138;2023-12-07T09:38:44;16.25;;;8.63;;
76171;SDS011;64929;51.178;4.138;2023-12-07T09:41:10;19.27;;;9.23;;
76171;SDS011;64929;51.178;4.138;2023-12-07T09:43:36;18.10;;;8.75;;
76171;SDS011;64929;51.178;4.138;2023-12-07T09:46:02;19.02;;;9.02;;
76171;SDS011;64929;51.178;4.138;2023-12-07T09:48:29;17.92;;;9.75;;
76171;SDS011;64929;51.178;4.138;2023-12-07T09:50:55;15.77;;;8.88;;
76171;SDS011;64929;51.178;4.138;2023-12-07T09:53:21;19.30;;;8.82;;
76171;SDS011;64929;51.178;4.138;2023-12-07T09:55:47;18.83;;;9.15;;
76171;SDS011;64929;51.178;4.138;2023-12-07T09:58:14;20.98;;;9.63;;
76171;SDS011;64929;51.178;4.138;2023-12-07T10:00:39;19.45;;;9.38;;
76171;SDS011;64929;51.178;4.138;2023-12-07T10:03:05;17.98;;;8.80;;
76171;SDS011;64929;51.178;4.138;2023-12-07T10:05:34;20.95;;;9.65;;
76171;SDS011;64929;51.178;4.138;2023-12-07T10:08:25;20.00;;;9.70;;
76171;SDS011;64929;51.178;4.138;2023-12-07T10:11:03;17.08;;;9.43;;
76171;SDS011;64929;51.178;4.138;2023-12-07T10:13:37;19.23;;;9.40;;
76171;SDS011;64929;51.178;4.138;2023-12-07T10:18:32;19.48;;;8.90;;
76171;SDS011;64929;51.178;4.138;2023-12-07T10:20:57;17.85;;;9.38;;
76171;SDS011;64929;51.178;4.138;2023-12-07T10:23:23;18.95;;;9.55;;
76171;SDS011;64929;51.178;4.138;2023-12-07T10:25:51;17.48;;;9.43;;
76171;SDS011;64929;51.178;4.138;2023-12-07T10:28:17;17.98;;;9.18;;
76171;SDS011;64929;51.178;4.138;2023-12-07T10:30:44;19.38;;;9.48;;
76171;SDS011;64929;51.178;4.138;2023-12-07T10:33:10;15.75;;;7.80;;
76171;SDS011;64929;51.178;4.138;2023-12-07T10:35:38;14.55;;;8.77;;
76171;SDS011;64929;51.178;4.138;2023-12-07T10:38:05;13.18;;;7.90;;
76171;SDS011;64929;51.178;4.138;2023-12-07T10:40:32;31.05;;;8.82;;
76171;SDS011;64929;51.178;4.138;2023-12-07T10:42:58;15.15;;;7.93;;
76171;SDS011;64929;51.178;4.138;2023-12-07T10:45:28;16.83;;;8.25;;
76171;SDS011;64929;51.178;4.138;2023-12-07T10:48:01;16.03;;;8.13;;
76171;SDS011;64929;51.178;4.138;2023-12-07T10:50:32;21.90;;;8.35;;
76171;SDS011;64929;51.178;4.138;2023-12-07T10:53:08;19.63;;;7.93;;
76171;SDS011;64929;51.178;4.138;2023-12-07T10:55:41;21.83;;;7.63;;
76171;SDS011;64929;51.178;4.138;2023-12-07T10:58:12;19.10;;;8.20;;
76171;SDS011;64929;51.178;4.138;2023-12-07T11:00:42;14.85;;;8.32;;
76171;SDS011;64929;51.178;4.138;2023-12-07T11:03:14;16.63;;;7.72;;
76171;SDS011;64929;51.178;4.138;2023-12-07T11:05:41;17.23;;;8.40;;
76171;SDS011;64929;51.178;4.138;2023-12-07T11:08:09;14.68;;;7.88;;
76171;SDS011;64929;51.178;4.138;2023-12-07T11:13:47;13.40;;;7.00;;
76171;SDS011;64929;51.178;4.138;2023-12-07T11:16:28;17.27;;;7.45;;
76171;SDS011;64929;51.178;4.138;2023-12-07T11:18:58;16.52;;;7.50;;
76171;SDS011;64929;51.178;4.138;2023-12-07T11:21:24;13.98;;;8.07;;
76171;SDS011;64929;51.178;4.138;2023-12-07T11:23:51;17.13;;;7.45;;
76171;SDS011;64929;51.178;4.138;2023-12-07T11:26:27;20.67;;;8.35;;
76171;SDS011;64929;51.178;4.138;2023-12-07T11:28:54;17.10;;;7.50;;
76171;SDS011;64929;51.178;4.138;2023-12-07T11:31:21;14.85;;;7.32;;
76171;SDS011;64929;51.178;4.138;2023-12-07T11:33:49;13.95;;;7.60;;
76171;SDS011;64929;51.178;4.138;2023-12-07T11:36:15;14.52;;;7.85;;
76171;SDS011;64929;51.178;4.138;2023-12-07T11:39:15;11.80;;;7.03;;
76171;SDS011;64929;51.178;4.138;2023-12-07T11:41:45;17.52;;;7.43;;
76171;SDS011;64929;51.178;4.138;2023-12-07T11:44:17;11.65;;;6.65;;
76171;SDS011;64929;51.178;4.138;2023-12-07T11:46:43;12.35;;;7.35;;
76171;SDS011;64929;51.178;4.138;2023-12-07T11:49:08;12.43;;;6.80;;
76171;SDS011;64929;51.178;4.138;2023-12-07T11:51:36;13.10;;;6.47;;
76171;SDS011;64929;51.178;4.138;2023-12-07T11:54:02;11.65;;;6.65;;
76171;SDS011;64929;51.178;4.138;2023-12-07T11:56:28;13.40;;;7.45;;
76171;SDS011;64929;51.178;4.138;2023-12-07T11:58:53;12.13;;;6.80;;
76171;SDS011;64929;51.178;4.138;2023-12-07T12:01:21;13.63;;;6.53;;
76171;SDS011;64929;51.178;4.138;2023-12-07T12:03:49;13.82;;;6.88;;
76171;SDS011;64929;51.178;4.138;2023-12-07T12:06:15;13.32;;;6.22;;
76171;SDS011;64929;51.178;4.138;2023-12-07T12:08:40;14.32;;;7.22;;
76171;SDS011;64929;51.178;4.138;2023-12-07T12:11:07;15.10;;;6.90;;
76171;SDS011;64929;51.178;4.138;2023-12-07T12:13:34;11.25;;;6.15;;
76171;SDS011;64929;51.178;4.138;2023-12-07T12:16:00;14.25;;;6.40;;
76171;SDS011;64929;51.178;4.138;2023-12-07T12:18:26;11.27;;;6.07;;
76171;SDS011;64929;51.178;4.138;2023-12-07T12:20:52;12.60;;;6.47;;
76171;SDS011;64929;51.178;4.138;2023-12-07T12:23:19;16.45;;;6.75;;
76171;SDS011;64929;51.178;4.138;2023-12-07T12:25:45;15.38;;;6.75;;
76171;SDS011;64929;51.178;4.138;2023-12-07T12:28:11;11.43;;;5.70;;
76171;SDS011;64929;51.178;4.138;2023-12-07T12:30:44;10.70;;;6.38;;
76171;SDS011;64929;51.178;4.138;2023-12-07T12:33:10;11.60;;;6.78;;
76171;SDS011;64929;51.178;4.138;2023-12-07T12:35:37;15.95;;;6.40;;
76171;SDS011;64929;51.178;4.138;2023-12-07T12:38:03;9.93;;;5.45;;
76171;SDS011;64929;51.178;4.138;2023-12-07T12:40:35;9.80;;;5.53;;
76171;SDS011;64929;51.178;4.138;2023-12-07T12:43:01;9.63;;;5.65;;
76171;SDS011;64929;51.178;4.138;2023-12-07T12:45:27;11.73;;;5.40;;
76171;SDS011;64929;51.178;4.138;2023-12-07T12:47:53;11.13;;;6.25;;
76171;SDS011;64929;51.178;4.138;2023-12-07T12:53:17;10.93;;;5.60;;
76171;SDS011;64929;51.178;4.138;2023-12-07T12:55:43;10.98;;;5.47;;
76171;SDS011;64929;51.178;4.138;2023-12-07T12:58:11;16.60;;;5.68;;
76171;SDS011;64929;51.178;4.138;2023-12-07T13:00:37;13.15;;;4.85;;
76171;SDS011;64929;51.178;4.138;2023-12-07T13:03:04;10.98;;;5.53;;
76171;SDS011;64929;51.178;4.138;2023-12-07T13:05:31;9.50;;;5.38;;
76171;SDS011;64929;51.178;4.138;2023-12-07T13:07:59;9.63;;;5.30;;
76171;SDS011;64929;51.178;4.138;2023-12-07T13:10:25;11.52;;;5.13;;
76171;SDS011;64929;51.178;4.138;2023-12-07T13:12:51;7.85;;;5.10;;
76171;SDS011;64929;51.178;4.138;2023-12-07T13:15:17;10.07;;;5.22;;
76171;SDS011;64929;51.178;4.138;2023-12-07T13:17:43;8.77;;;5.18;;
76171;SDS011;64929;51.178;4.138;2023-12-07T13:20:09;12.48;;;5.07;;
76171;SDS011;64929;51.178;4.138;2023-12-07T13:22:39;12.15;;;5.22;;
76171;SDS011;64929;51.178;4.138;2023-12-07T13:25:08;7.78;;;4.95;;
76171;SDS011;64929;51.178;4.138;2023-12-07T13:27:34;8.38;;;4.53;;
76171;SDS011;64929;51.178;4.138;2023-12-07T13:30:01;10.65;;;4.63;;
76171;SDS011;64929;51.178;4.138;2023-12-07T13:32:30;11.70;;;5.57;;
76171;SDS011;64929;51.178;4.138;2023-12-07T13:34:57;10.73;;;5.20;;
76171;SDS011;64929;51.178;4.138;2023-12-07T13:37:23;9.60;;;5.15;;
76171;SDS011;64929;51.178;4.138;2023-12-07T13:39:48;12.90;;;5.45;;
76171;SDS011;64929;51.178;4.138;2023-12-07T13:42:20;9.02;;;5.10;;
76171;SDS011;64929;51.178;4.138;2023-12-07T13:44:46;8.48;;;4.95;;
76171;SDS011;64929;51.178;4.138;2023-12-07T13:47:12;10.57;;;4.90;;
76171;SDS011;64929;51.178;4.138;2023-12-07T13:49:42;8.40;;;5.05;;
76171;SDS011;64929;51.178;4.138;2023-12-07T13:52:08;10.02;;;5.05;;
76171;SDS011;64929;51.178;4.138;2023-12-07T13:54:34;9.00;;;5.15;;
76171;SDS011;64929;51.178;4.138;2023-12-07T13:57:03;12.90;;;4.88;;
76171;SDS011;64929;51.178;4.138;2023-12-07T13:59:29;10.63;;;4.50;;
76171;SDS011;64929;51.178;4.138;2023-12-07T14:01:56;8.95;;;4.40;;
76171;SDS011;64929;51.178;4.138;2023-12-07T14:04:23;11.10;;;4.78;;
76171;SDS011;64929;51.178;4.138;2023-12-07T14:06:49;9.57;;;4.20;;
76171;SDS011;64929;51.178;4.138;2023-12-07T14:09:16;8.80;;;5.22;;
76171;SDS011;64929;51.178;4.138;2023-12-07T14:11:43;16.52;;;5.05;;
76171;SDS011;64929;51.178;4.138;2023-12-07T14:14:09;9.55;;;5.10;;
76171;SDS011;64929;51.178;4.138;2023-12-07T14:16:34;9.82;;;4.90;;
76171;SDS011;64929;51.178;4.138;2023-12-07T14:19:00;10.07;;;4.88;;
76171;SDS011;64929;51.178;4.138;2023-12-07T14:21:26;8.85;;;4.53;;
76171;SDS011;64929;51.178;4.138;2023-12-07T14:23:52;11.70;;;4.70;;
76171;SDS011;64929;51.178;4.138;2023-12-07T14:26:20;13.02;;;5.50;;
76171;SDS011;64929;51.178;4.138;2023-12-07T14:28:45;12.50;;;4.63;;
76171;SDS011;64929;51.178;4.138;2023-12-07T14:31:12;9.70;;;4.60;;
76171;SDS011;64929;51.178;4.138;2023-12-07T14:33:41;9.13;;;4.82;;
76171;SDS011;64929;51.178;4.138;2023-12-07T14:36:09;8.07;;;4.75;;
76171;SDS011;64929;51.178;4.138;2023-12-07T14:38:36;8.23;;;4.07;;
76171;SDS011;64929;51.178;4.138;2023-12-07T14:41:02;9.98;;;4.55;;
76171;SDS011;64929;51.178;4.138;2023-12-07T14:43:29;8.32;;;4.72;;
76171;SDS011;64929;51.178;4.138;2023-12-07T14:45:55;8.30;;;4.78;;